GCEND KAAA-KSPI
Flight info
| Callsign | GCEND |
|---|---|
| Flight time | 0h 19m |
| Altitude | 2100 |
| Route | KAAAA/ BROADWELL / WILLAMSVILLE / KSPI |
| Aircraft | C172/L-VGDW/C |
Departure
| Time | 2026-04-24 08:33 |
|---|---|
| Airport | Logan County Airport (KAAA) |
Arrival
| Time | 2026-04-24 08:53 |
|---|---|
| Airport | Abraham Lincoln Capital Airport (KSPI) |
| Time | Latitude | Longitude | Altitude | Speed | Heading |
|---|---|---|---|---|---|
| 2026-04-24 08:19 | 40.15946 | -89.33635 | 591 ft | 0 kts | 300° |
| 2026-04-24 08:30 | 40.15947 | -89.33643 | 591 ft | 4 kts | 256° |
| 2026-04-24 08:30 | 40.15898 | -89.33585 | 591 ft | 10 kts | 123° |
| 2026-04-24 08:30 | 40.15893 | -89.33575 | 591 ft | 0 kts | 125° |
| 2026-04-24 08:31 | 40.15878 | -89.33495 | 591 ft | 16 kts | 51° |
| 2026-04-24 08:31 | 40.16011 | -89.33369 | 591 ft | 30 kts | 44° |
| 2026-04-24 08:31 | 40.16089 | -89.33302 | 591 ft | 3 kts | 210° |
| 2026-04-24 08:32 | 40.16079 | -89.33310 | 591 ft | 0 kts | 216° |
| 2026-04-24 08:32 | 40.16076 | -89.33312 | 591 ft | 8 kts | 217° |
| 2026-04-24 08:32 | 40.15851 | -89.33519 | 591 ft | 63 kts | 214° |
| 2026-04-24 08:32 | 40.15454 | -89.33899 | 727 ft | 70 kts | 216° |
| 2026-04-24 08:33 | 40.15067 | -89.34232 | 943 ft | 69 kts | 206° |
| 2026-04-24 08:33 | 40.14654 | -89.34571 | 1138 ft | 72 kts | 213° |
| 2026-04-24 08:33 | 40.14274 | -89.35014 | 1336 ft | 74 kts | 219° |
| 2026-04-24 08:33 | 40.13912 | -89.35504 | 1537 ft | 74 kts | 220° |
| 2026-04-24 08:34 | 40.13567 | -89.36002 | 1733 ft | 74 kts | 220° |
| 2026-04-24 08:34 | 40.13226 | -89.36492 | 1944 ft | 72 kts | 221° |
| 2026-04-24 08:34 | 40.12888 | -89.36965 | 2139 ft | 71 kts | 221° |
| 2026-04-24 08:34 | 40.12515 | -89.37466 | 2119 ft | 83 kts | 221° |
| 2026-04-24 08:35 | 40.12093 | -89.38029 | 2107 ft | 88 kts | 222° |
| 2026-04-24 08:35 | 40.11662 | -89.38609 | 2101 ft | 89 kts | 222° |
| 2026-04-24 08:35 | 40.11226 | -89.39197 | 2096 ft | 90 kts | 221° |
| 2026-04-24 08:35 | 40.10793 | -89.39782 | 2107 ft | 90 kts | 221° |
| 2026-04-24 08:36 | 40.10354 | -89.40377 | 2103 ft | 90 kts | 223° |
| 2026-04-24 08:36 | 40.09913 | -89.40971 | 2106 ft | 90 kts | 222° |
| 2026-04-24 08:36 | 40.09473 | -89.41565 | 2107 ft | 91 kts | 222° |
| 2026-04-24 08:36 | 40.09033 | -89.42157 | 2103 ft | 91 kts | 222° |
| 2026-04-24 08:37 | 40.08553 | -89.42708 | 2107 ft | 91 kts | 217° |
| 2026-04-24 08:37 | 40.08058 | -89.43219 | 2099 ft | 90 kts | 215° |
| 2026-04-24 08:37 | 40.07560 | -89.43713 | 2099 ft | 90 kts | 215° |
| 2026-04-24 08:37 | 40.07058 | -89.44207 | 2099 ft | 90 kts | 215° |
| 2026-04-24 08:38 | 40.06562 | -89.44698 | 2104 ft | 90 kts | 216° |
| 2026-04-24 08:38 | 40.06058 | -89.45200 | 2104 ft | 90 kts | 214° |
| 2026-04-24 08:38 | 40.05560 | -89.45689 | 2100 ft | 89 kts | 213° |
| 2026-04-24 08:38 | 40.05054 | -89.46175 | 2104 ft | 90 kts | 214° |
| 2026-04-24 08:39 | 40.04549 | -89.46654 | 2103 ft | 90 kts | 214° |
| 2026-04-24 08:39 | 40.04044 | -89.47137 | 2100 ft | 90 kts | 215° |
| 2026-04-24 08:39 | 40.03535 | -89.47617 | 2099 ft | 89 kts | 214° |
| 2026-04-24 08:39 | 40.03033 | -89.48089 | 2103 ft | 89 kts | 214° |
| 2026-04-24 08:40 | 40.02532 | -89.48566 | 2101 ft | 90 kts | 214° |
| 2026-04-24 08:40 | 40.02019 | -89.49054 | 2105 ft | 90 kts | 215° |
| 2026-04-24 08:40 | 40.01510 | -89.49535 | 2103 ft | 90 kts | 214° |
| 2026-04-24 08:40 | 40.01005 | -89.50010 | 2106 ft | 90 kts | 213° |
| 2026-04-24 08:41 | 40.00497 | -89.50494 | 2104 ft | 90 kts | 214° |
| 2026-04-24 08:41 | 39.99987 | -89.50979 | 2102 ft | 91 kts | 215° |
| 2026-04-24 08:41 | 39.99471 | -89.51462 | 2101 ft | 90 kts | 214° |
| 2026-04-24 08:41 | 39.98962 | -89.51937 | 2103 ft | 90 kts | 213° |
| 2026-04-24 08:42 | 39.98452 | -89.52419 | 2105 ft | 91 kts | 214° |
| 2026-04-24 08:42 | 39.97939 | -89.52904 | 2103 ft | 91 kts | 214° |
| 2026-04-24 08:42 | 39.97428 | -89.53389 | 2100 ft | 91 kts | 214° |
| 2026-04-24 08:42 | 39.96920 | -89.53876 | 2096 ft | 90 kts | 214° |
| 2026-04-24 08:43 | 39.96415 | -89.54353 | 2099 ft | 89 kts | 214° |
| 2026-04-24 08:43 | 39.96133 | -89.54623 | 2098 ft | 90 kts | 214° |
| 2026-04-24 08:43 | 39.95858 | -89.54888 | 2099 ft | 90 kts | 215° |
| 2026-04-24 08:43 | 39.95352 | -89.55373 | 2043 ft | 91 kts | 214° |
| 2026-04-24 08:44 | 39.94833 | -89.55882 | 1886 ft | 93 kts | 214° |
| 2026-04-24 08:44 | 39.94313 | -89.56404 | 1735 ft | 95 kts | 214° |
| 2026-04-24 08:44 | 39.93788 | -89.56941 | 1593 ft | 97 kts | 215° |
| 2026-04-24 08:44 | 39.93283 | -89.57452 | 1588 ft | 87 kts | 215° |
| 2026-04-24 08:45 | 39.92803 | -89.57938 | 1593 ft | 88 kts | 214° |
| 2026-04-24 08:45 | 39.92315 | -89.58433 | 1597 ft | 89 kts | 214° |
| 2026-04-24 08:45 | 39.91819 | -89.58939 | 1603 ft | 91 kts | 214° |
| 2026-04-24 08:45 | 39.91317 | -89.59449 | 1596 ft | 91 kts | 215° |
| 2026-04-24 08:46 | 39.90815 | -89.59960 | 1597 ft | 91 kts | 214° |
| 2026-04-24 08:46 | 39.90314 | -89.60465 | 1597 ft | 91 kts | 214° |
| 2026-04-24 08:46 | 39.89811 | -89.60974 | 1600 ft | 91 kts | 215° |
| 2026-04-24 08:46 | 39.89308 | -89.61483 | 1600 ft | 91 kts | 214° |
| 2026-04-24 08:47 | 39.88801 | -89.61996 | 1598 ft | 92 kts | 214° |
| 2026-04-24 08:47 | 39.88298 | -89.62501 | 1597 ft | 90 kts | 215° |
| 2026-04-24 08:47 | 39.87816 | -89.62994 | 1595 ft | 83 kts | 215° |
| 2026-04-24 08:47 | 39.87382 | -89.63444 | 1595 ft | 77 kts | 215° |
| 2026-04-24 08:48 | 39.86972 | -89.63874 | 1599 ft | 73 kts | 215° |
| 2026-04-24 08:48 | 39.86585 | -89.64288 | 1592 ft | 71 kts | 218° |
| 2026-04-24 08:48 | 39.86411 | -89.64910 | 1584 ft | 81 kts | 261° |
| 2026-04-24 08:48 | 39.86673 | -89.65579 | 1672 ft | 83 kts | 297° |
| 2026-04-24 08:49 | 39.87103 | -89.66143 | 1617 ft | 89 kts | 296° |
| 2026-04-24 08:49 | 39.87486 | -89.66763 | 1605 ft | 86 kts | 290° |
| 2026-04-24 08:49 | 39.87853 | -89.67373 | 1602 ft | 84 kts | 291° |
| 2026-04-24 08:49 | 39.88217 | -89.67979 | 1601 ft | 84 kts | 291° |
| 2026-04-24 08:50 | 39.88583 | -89.68580 | 1598 ft | 82 kts | 288° |
| 2026-04-24 08:50 | 39.88683 | -89.69197 | 1605 ft | 63 kts | 242° |
| 2026-04-24 08:50 | 39.88405 | -89.69565 | 1607 ft | 57 kts | 202° |
| 2026-04-24 08:50 | 39.88022 | -89.69698 | 1598 ft | 56 kts | 191° |
| 2026-04-24 08:51 | 39.87623 | -89.69820 | 1580 ft | 60 kts | 194° |
| 2026-04-24 08:51 | 39.87233 | -89.69940 | 1542 ft | 55 kts | 193° |
| 2026-04-24 08:51 | 39.86859 | -89.70005 | 1476 ft | 56 kts | 185° |
| 2026-04-24 08:51 | 39.86439 | -89.69979 | 1331 ft | 63 kts | 173° |
| 2026-04-24 08:52 | 39.86014 | -89.69805 | 1172 ft | 67 kts | 167° |
| 2026-04-24 08:52 | 39.85585 | -89.69518 | 983 ft | 72 kts | 154° |
| 2026-04-24 08:52 | 39.85200 | -89.69079 | 825 ft | 75 kts | 140° |
| 2026-04-24 08:52 | 39.84857 | -89.68573 | 674 ft | 74 kts | 133° |
| 2026-04-24 08:53 | 39.84575 | -89.68089 | 600 ft | 57 kts | 137° |
| 2026-04-24 08:53 | 39.84391 | -89.67788 | 588 ft | 26 kts | 129° |
| 2026-04-24 08:53 | 39.84351 | -89.67648 | 588 ft | 13 kts | 50° |
| 2026-04-24 08:53 | 39.84412 | -89.67565 | 588 ft | 12 kts | 43° |
| 2026-04-24 08:54 | 39.84473 | -89.67500 | 588 ft | 10 kts | 45° |
| 2026-04-24 08:54 | 39.84553 | -89.67407 | 588 ft | 23 kts | 49° |
| 2026-04-24 08:54 | 39.84623 | -89.67323 | 588 ft | 15 kts | 41° |
| 2026-04-24 08:54 | 39.84619 | -89.67194 | 588 ft | 19 kts | 73° |
| 2026-04-24 08:55 | 39.84609 | -89.67037 | 588 ft | 18 kts | 111° |
| 2026-04-24 08:55 | 39.84585 | -89.66940 | 586 ft | 6 kts | 339° |
| 2026-04-24 08:55 | 39.84591 | -89.66946 | 586 ft | 0 kts | 314° |